sensor_id;sensor_type;location;lat;lon;timestamp;pressure;altitude;pressure_sealevel;temperature;humidity
55317;BME280;41178;48.956;8.130;2023-07-02T00:00:01;99270.25;;;21.18;50.40
55317;BME280;41178;48.956;8.130;2023-07-02T00:05:03;99291.28;;;20.33;52.63
55317;BME280;41178;48.956;8.130;2023-07-02T00:10:05;99333.22;;;19.82;53.29
55317;BME280;41178;48.956;8.130;2023-07-02T00:15:07;99260.09;;;20.03;53.61
55317;BME280;41178;48.956;8.130;2023-07-02T00:20:10;99247.38;;;20.51;52.11
55317;BME280;41178;48.956;8.130;2023-07-02T00:25:18;99292.19;;;20.06;53.17
55317;BME280;41178;48.956;8.130;2023-07-02T00:30:20;99311.91;;;20.28;52.05
55317;BME280;41178;48.956;8.130;2023-07-02T00:35:22;99276.56;;;20.71;52.16
55317;BME280;41178;48.956;8.130;2023-07-02T00:40:26;99233.09;;;20.76;52.27
55317;BME280;41178;48.956;8.130;2023-07-02T00:45:28;99313.28;;;19.99;53.39
55317;BME280;41178;48.956;8.130;2023-07-02T00:50:31;99289.03;;;20.19;53.44
55317;BME280;41178;48.956;8.130;2023-07-02T00:55:32;99284.34;;;19.55;55.24
55317;BME280;41178;48.956;8.130;2023-07-02T01:00:34;99328.81;;;19.49;54.10
55317;BME280;41178;48.956;8.130;2023-07-02T01:05:36;99349.88;;;18.97;55.02
55317;BME280;41178;48.956;8.130;2023-07-02T01:10:38;99311.94;;;18.97;55.34
55317;BME280;41178;48.956;8.130;2023-07-02T01:15:40;99327.72;;;18.44;56.13
55317;BME280;41178;48.956;8.130;2023-07-02T01:20:43;99297.75;;;17.83;57.51
55317;BME280;41178;48.956;8.130;2023-07-02T01:25:45;99324.28;;;17.29;58.11
55317;BME280;41178;48.956;8.130;2023-07-02T01:30:47;99218.19;;;18.79;55.88
55317;BME280;41178;48.956;8.130;2023-07-02T01:35:49;99260.09;;;18.16;55.78
55317;BME280;41178;48.956;8.130;2023-07-02T01:40:51;99260.81;;;18.45;54.57
55317;BME280;41178;48.956;8.130;2023-07-02T01:45:54;99337.66;;;17.35;54.73
55317;BME280;41178;48.956;8.130;2023-07-02T01:50:57;99382.31;;;16.97;54.73
55317;BME280;41178;48.956;8.130;2023-07-02T01:55:59;99378.28;;;16.88;54.96
55317;BME280;41178;48.956;8.130;2023-07-02T02:01:01;99299.59;;;17.83;53.54
55317;BME280;41178;48.956;8.130;2023-07-02T02:06:03;99320.84;;;17.91;52.81
55317;BME280;41178;48.956;8.130;2023-07-02T02:11:04;99398.28;;;17.11;53.62
55317;BME280;41178;48.956;8.130;2023-07-02T02:16:06;99387.88;;;17.43;52.97
55317;BME280;41178;48.956;8.130;2023-07-02T02:21:08;99347.94;;;17.91;52.24
55317;BME280;41178;48.956;8.130;2023-07-02T02:26:10;99336.75;;;18.33;52.29
55317;BME280;41178;48.956;8.130;2023-07-02T02:31:12;99328.50;;;19.01;50.78
55317;BME280;41178;48.956;8.130;2023-07-02T02:36:14;99355.22;;;19.58;49.74
55317;BME280;41178;48.956;8.130;2023-07-02T02:41:15;99346.63;;;18.78;51.41
55317;BME280;41178;48.956;8.130;2023-07-02T02:46:21;99350.19;;;19.01;50.82
55317;BME280;41178;48.956;8.130;2023-07-02T02:51:26;99409.06;;;18.67;50.85
55317;BME280;41178;48.956;8.130;2023-07-02T02:56:27;99336.81;;;19.88;49.74
55317;BME280;41178;48.956;8.130;2023-07-02T03:01:29;99416.00;;;19.13;50.09
55317;BME280;41178;48.956;8.130;2023-07-02T03:06:32;99379.78;;;19.47;49.97
55317;BME280;41178;48.956;8.130;2023-07-02T03:11:34;99395.88;;;18.07;52.66
55317;BME280;41178;48.956;8.130;2023-07-02T03:16:36;99342.69;;;18.69;51.88
55317;BME280;41178;48.956;8.130;2023-07-02T03:21:45;99418.16;;;17.98;52.89
55317;BME280;41178;48.956;8.130;2023-07-02T03:26:46;99382.09;;;18.94;50.98
55317;BME280;41178;48.956;8.130;2023-07-02T03:31:48;99400.81;;;18.27;52.25
55317;BME280;41178;48.956;8.130;2023-07-02T03:36:50;99327.78;;;18.89;51.76
55317;BME280;41178;48.956;8.130;2023-07-02T03:41:52;99400.81;;;18.78;51.05
55317;BME280;41178;48.956;8.130;2023-07-02T03:46:53;99430.88;;;18.77;50.99
55317;BME280;41178;48.956;8.130;2023-07-02T03:51:55;99462.41;;;18.32;51.70
55317;BME280;41178;48.956;8.130;2023-07-02T03:56:57;99444.28;;;17.63;53.29
55317;BME280;41178;48.956;8.130;2023-07-02T04:01:59;99430.56;;;18.39;51.91
55317;BME280;41178;48.956;8.130;2023-07-02T04:07:01;99409.47;;;18.58;51.64
55317;BME280;41178;48.956;8.130;2023-07-02T04:12:03;99488.78;;;16.96;54.31
55317;BME280;41178;48.956;8.130;2023-07-02T04:17:05;99444.94;;;17.18;54.41
55317;BME280;41178;48.956;8.130;2023-07-02T04:22:07;99431.22;;;18.46;52.01
55317;BME280;41178;48.956;8.130;2023-07-02T04:27:09;99459.06;;;18.93;50.25
55317;BME280;41178;48.956;8.130;2023-07-02T04:32:31;99409.63;;;19.47;49.70
55317;BME280;41178;48.956;8.130;2023-07-02T04:37:33;99429.50;;;19.52;49.53
55317;BME280;41178;48.956;8.130;2023-07-02T04:42:39;99449.56;;;19.29;50.04
55317;BME280;41178;48.956;8.130;2023-07-02T04:47:44;99459.28;;;18.57;51.68
55317;BME280;41178;48.956;8.130;2023-07-02T04:52:46;99459.28;;;18.12;53.10
55317;BME280;41178;48.956;8.130;2023-07-02T04:57:48;99492.19;;;17.91;52.95
55317;BME280;41178;48.956;8.130;2023-07-02T05:02:50;99437.88;;;18.90;51.50
55317;BME280;41178;48.956;8.130;2023-07-02T05:07:54;99436.09;;;17.87;52.90
55317;BME280;41178;48.956;8.130;2023-07-02T05:12:55;99505.06;;;17.61;52.20
55317;BME280;41178;48.956;8.130;2023-07-02T05:17:57;99446.75;;;18.68;50.24
55317;BME280;41178;48.956;8.130;2023-07-02T05:22:59;99505.44;;;17.41;52.35
55317;BME280;41178;48.956;8.130;2023-07-02T05:28:01;99489.94;;;17.36;52.96
55317;BME280;41178;48.956;8.130;2023-07-02T05:33:02;99452.41;;;18.50;50.99
55317;BME280;41178;48.956;8.130;2023-07-02T05:38:04;99532.41;;;18.40;50.76
55317;BME280;41178;48.956;8.130;2023-07-02T05:43:06;99537.13;;;18.62;50.56
55317;BME280;41178;48.956;8.130;2023-07-02T05:48:08;99484.50;;;19.65;48.77
55317;BME280;41178;48.956;8.130;2023-07-02T05:53:10;99541.19;;;18.31;51.43
55317;BME280;41178;48.956;8.130;2023-07-02T05:58:12;99577.63;;;17.16;52.92
55317;BME280;41178;48.956;8.130;2023-07-02T06:03:17;99580.00;;;17.36;51.94
55317;BME280;41178;48.956;8.130;2023-07-02T06:08:22;99536.91;;;17.94;50.93
55317;BME280;41178;48.956;8.130;2023-07-02T06:13:23;99544.09;;;18.00;50.89
55317;BME280;41178;48.956;8.130;2023-07-02T06:18:25;99497.25;;;18.91;49.06
55317;BME280;41178;48.956;8.130;2023-07-02T06:23:29;99595.03;;;17.44;51.00
55317;BME280;41178;48.956;8.130;2023-07-02T06:28:31;99527.88;;;18.92;48.93
55317;BME280;41178;48.956;8.130;2023-07-02T06:33:33;99548.56;;;18.35;49.62
55317;BME280;41178;48.956;8.130;2023-07-02T06:38:35;99573.09;;;18.28;49.53
55317;BME280;41178;48.956;8.130;2023-07-02T06:43:36;99570.72;;;17.68;50.41
55317;BME280;41178;48.956;8.130;2023-07-02T06:48:38;99518.13;;;19.08;48.32
55317;BME280;41178;48.956;8.130;2023-07-02T06:53:41;99662.56;;;17.51;49.24
55317;BME280;41178;48.956;8.130;2023-07-02T06:58:43;99524.44;;;19.30;47.34
55317;BME280;41178;48.956;8.130;2023-07-02T07:03:45;99562.59;;;19.07;48.09
55317;BME280;41178;48.956;8.130;2023-07-02T07:08:47;99521.06;;;20.01;46.94
55317;BME280;41178;48.956;8.130;2023-07-02T07:13:48;99633.66;;;18.10;49.47
55317;BME280;41178;48.956;8.130;2023-07-02T07:18:53;99525.34;;;18.68;48.86
55317;BME280;41178;48.956;8.130;2023-07-02T07:23:54;99564.66;;;18.71;48.52
55317;BME280;41178;48.956;8.130;2023-07-02T07:28:56;99586.97;;;18.90;48.26
55317;BME280;41178;48.956;8.130;2023-07-02T07:33:59;99603.34;;;19.12;47.68
55317;BME280;41178;48.956;8.130;2023-07-02T07:39:01;99644.75;;;18.78;48.07
55317;BME280;41178;48.956;8.130;2023-07-02T07:44:03;99611.28;;;18.56;48.53
55317;BME280;41178;48.956;8.130;2023-07-02T07:49:05;99579.75;;;19.63;47.03
55317;BME280;41178;48.956;8.130;2023-07-02T07:54:06;99565.94;;;19.87;46.49
55317;BME280;41178;48.956;8.130;2023-07-02T07:59:08;99629.13;;;18.97;47.08
55317;BME280;41178;48.956;8.130;2023-07-02T08:04:10;99595.91;;;19.75;45.80
55317;BME280;41178;48.956;8.130;2023-07-02T08:09:12;99581.09;;;19.27;46.10
55317;BME280;41178;48.956;8.130;2023-07-02T08:14:14;99608.22;;;19.61;46.19
55317;BME280;41178;48.956;8.130;2023-07-02T08:19:16;99542.69;;;20.67;44.57
55317;BME280;41178;48.956;8.130;2023-07-02T08:24:17;99595.59;;;18.58;47.49
55317;BME280;41178;48.956;8.130;2023-07-02T08:29:19;99577.75;;;19.42;46.31
55317;BME280;41178;48.956;8.130;2023-07-02T08:34:21;99498.84;;;20.91;44.38
55317;BME280;41178;48.956;8.130;2023-07-02T08:39:23;99610.41;;;18.96;46.24
55317;BME280;41178;48.956;8.130;2023-07-02T08:44:26;99498.00;;;19.82;45.81
55317;BME280;41178;48.956;8.130;2023-07-02T08:49:28;99528.94;;;20.25;44.25
55317;BME280;41178;48.956;8.130;2023-07-02T08:54:30;99547.47;;;20.28;44.00
55317;BME280;41178;48.956;8.130;2023-07-02T08:59:32;99596.31;;;19.84;44.01
55317;BME280;41178;48.956;8.130;2023-07-02T09:04:33;99550.22;;;20.33;43.76
55317;BME280;41178;48.956;8.130;2023-07-02T09:09:46;99602.47;;;19.96;44.08
55317;BME280;41178;48.956;8.130;2023-07-02T09:15:03;99551.78;;;19.63;44.06
55317;BME280;41178;48.956;8.130;2023-07-02T09:20:08;99507.72;;;20.00;43.72
55317;BME280;41178;48.956;8.130;2023-07-02T09:25:10;99527.59;;;20.77;43.13
55317;BME280;41178;48.956;8.130;2023-07-02T09:30:14;99520.34;;;19.11;44.52
55317;BME280;41178;48.956;8.130;2023-07-02T09:35:19;99528.34;;;20.01;44.11
55317;BME280;41178;48.956;8.130;2023-07-02T09:40:21;99525.19;;;20.31;43.08
55317;BME280;41178;48.956;8.130;2023-07-02T09:45:26;99483.63;;;20.30;43.42
55317;BME280;41178;48.956;8.130;2023-07-02T09:50:29;99492.19;;;21.09;42.81
55317;BME280;41178;48.956;8.130;2023-07-02T09:55:32;99582.19;;;19.48;43.53
55317;BME280;41178;48.956;8.130;2023-07-02T10:00:34;99499.66;;;21.82;40.93
55317;BME280;41178;48.956;8.130;2023-07-02T10:05:36;99619.06;;;19.10;42.35
55317;BME280;41178;48.956;8.130;2023-07-02T10:10:39;99575.63;;;18.93;43.37
55317;BME280;41178;48.956;8.130;2023-07-02T10:15:40;99528.72;;;21.23;41.06
55317;BME280;41178;48.956;8.130;2023-07-02T10:20:43;99508.00;;;21.60;41.88
55317;BME280;41178;48.956;8.130;2023-07-02T10:25:45;99546.66;;;20.82;40.88
55317;BME280;41178;48.956;8.130;2023-07-02T10:30:46;99538.38;;;21.36;40.29
55317;BME280;41178;48.956;8.130;2023-07-02T10:35:49;99588.63;;;20.42;40.86
55317;BME280;41178;48.956;8.130;2023-07-02T10:40:59;99498.47;;;22.26;40.28
55317;BME280;41178;48.956;8.130;2023-07-02T10:46:02;99512.31;;;22.14;39.40
55317;BME280;41178;48.956;8.130;2023-07-02T10:51:11;99542.69;;;20.67;39.59
55317;BME280;41178;48.956;8.130;2023-07-02T10:56:16;99486.75;;;21.52;40.35
55317;BME280;41178;48.956;8.130;2023-07-02T11:06:21;99402.75;;;18.44;43.82
55317;BME280;41178;48.956;8.130;2023-07-02T11:11:24;99444.09;;;19.68;42.25
55317;BME280;41178;48.956;8.130;2023-07-02T11:16:28;99438.94;;;19.28;42.83
55317;BME280;41178;48.956;8.130;2023-07-02T11:21:31;99436.56;;;22.01;39.63
55317;BME280;41178;48.956;8.130;2023-07-02T11:26:40;99430.97;;;21.07;40.12
55317;BME280;41178;48.956;8.130;2023-07-02T11:31:42;99416.50;;;21.49;39.81
55317;BME280;41178;48.956;8.130;2023-07-02T11:36:44;99426.97;;;21.88;37.99
55317;BME280;41178;48.956;8.130;2023-07-02T11:41:47;99442.41;;;21.56;38.23
55317;BME280;41178;48.956;8.130;2023-07-02T11:46:50;99469.44;;;21.84;38.51
55317;BME280;41178;48.956;8.130;2023-07-02T11:51:51;99454.88;;;21.47;38.02
55317;BME280;41178;48.956;8.130;2023-07-02T11:56:53;99443.66;;;22.12;39.66
55317;BME280;41178;48.956;8.130;2023-07-02T12:01:55;99490.00;;;22.22;36.95
55317;BME280;41178;48.956;8.130;2023-07-02T12:06:57;99481.56;;;22.24;36.62
55317;BME280;41178;48.956;8.130;2023-07-02T12:11:59;99545.13;;;20.96;36.80
55317;BME280;41178;48.956;8.130;2023-07-02T12:17:01;99502.63;;;21.70;36.14
55317;BME280;41178;48.956;8.130;2023-07-02T12:22:06;99467.47;;;21.64;36.18
55317;BME280;41178;48.956;8.130;2023-07-02T12:27:08;99455.13;;;22.14;36.30
55317;BME280;41178;48.956;8.130;2023-07-02T12:32:10;99511.56;;;20.53;37.23
55317;BME280;41178;48.956;8.130;2023-07-02T12:37:12;99405.94;;;23.32;36.60
55317;BME280;41178;48.956;8.130;2023-07-02T12:42:18;99397.09;;;22.65;36.14
55317;BME280;41178;48.956;8.130;2023-07-02T12:47:20;99419.16;;;23.70;35.45
55317;BME280;41178;48.956;8.130;2023-07-02T12:52:22;99454.88;;;22.41;35.74
55317;BME280;41178;48.956;8.130;2023-07-02T12:57:24;99384.13;;;23.87;33.65
55317;BME280;41178;48.956;8.130;2023-07-02T13:02:27;99485.72;;;22.67;34.14
55317;BME280;41178;48.956;8.130;2023-07-02T13:07:29;99432.50;;;22.44;34.58
55317;BME280;41178;48.956;8.130;2023-07-02T13:12:31;99440.69;;;22.49;34.21
55317;BME280;41178;48.956;8.130;2023-07-02T13:17:33;99378.66;;;23.32;34.95
55317;BME280;41178;48.956;8.130;2023-07-02T13:22:35;99455.31;;;21.92;34.33
55317;BME280;41178;48.956;8.130;2023-07-02T13:27:39;99417.75;;;22.97;33.74
55317;BME280;41178;48.956;8.130;2023-07-02T13:32:40;99459.25;;;22.37;33.47
55317;BME280;41178;48.956;8.130;2023-07-02T13:37:42;99418.31;;;22.94;34.33
55317;BME280;41178;48.956;8.130;2023-07-02T13:42:44;99414.66;;;23.34;33.78
55317;BME280;41178;48.956;8.130;2023-07-02T13:47:46;99442.16;;;21.68;33.92
55317;BME280;41178;48.956;8.130;2023-07-02T13:52:48;99358.09;;;22.69;33.34
55317;BME280;41178;48.956;8.130;2023-07-02T13:57:51;99409.66;;;24.07;33.64
55317;BME280;41178;48.956;8.130;2023-07-02T14:02:53;99466.47;;;21.90;33.64
55317;BME280;41178;48.956;8.130;2023-07-02T14:07:55;99409.59;;;22.92;33.00
55317;BME280;41178;48.956;8.130;2023-07-02T14:12:57;99330.38;;;23.22;33.36
55317;BME280;41178;48.956;8.130;2023-07-02T14:17:58;99341.88;;;23.69;31.90
55317;BME280;41178;48.956;8.130;2023-07-02T14:23:00;99427.34;;;22.68;32.90
55317;BME280;41178;48.956;8.130;2023-07-02T14:28:02;99374.75;;;22.42;33.27
55317;BME280;41178;48.956;8.130;2023-07-02T14:33:05;99410.66;;;21.98;33.00
55317;BME280;41178;48.956;8.130;2023-07-02T14:38:07;99408.53;;;22.10;33.36
55317;BME280;41178;48.956;8.130;2023-07-02T14:43:09;99321.72;;;23.00;33.24
55317;BME280;41178;48.956;8.130;2023-07-02T14:48:10;99401.03;;;23.29;33.00
55317;BME280;41178;48.956;8.130;2023-07-02T14:53:12;99312.91;;;24.08;32.06
55317;BME280;41178;48.956;8.130;2023-07-02T14:58:16;99402.25;;;22.71;33.13
55317;BME280;41178;48.956;8.130;2023-07-02T15:03:20;99406.06;;;22.29;32.90
55317;BME280;41178;48.956;8.130;2023-07-02T15:08:24;99407.47;;;22.52;32.58
55317;BME280;41178;48.956;8.130;2023-07-02T15:13:26;99394.91;;;23.63;32.37
55317;BME280;41178;48.956;8.130;2023-07-02T15:18:27;99377.00;;;23.31;32.67
55317;BME280;41178;48.956;8.130;2023-07-02T15:23:31;99325.25;;;23.60;32.37
55317;BME280;41178;48.956;8.130;2023-07-02T15:28:33;99338.78;;;23.31;32.84
55317;BME280;41178;48.956;8.130;2023-07-02T15:33:36;99373.47;;;23.31;32.21
55317;BME280;41178;48.956;8.130;2023-07-02T15:38:39;99378.78;;;23.56;31.83
55317;BME280;41178;48.956;8.130;2023-07-02T15:43:42;99328.69;;;23.81;32.41
55317;BME280;41178;48.956;8.130;2023-07-02T15:48:44;99390.56;;;23.52;32.04
55317;BME280;41178;48.956;8.130;2023-07-02T15:53:46;99354.56;;;22.53;32.53
55317;BME280;41178;48.956;8.130;2023-07-02T15:58:47;99315.00;;;25.23;30.87
55317;BME280;41178;48.956;8.130;2023-07-02T16:03:49;99369.78;;;22.80;32.34
55317;BME280;41178;48.956;8.130;2023-07-02T16:08:52;99315.28;;;23.40;32.38
55317;BME280;41178;48.956;8.130;2023-07-02T16:13:53;99350.72;;;24.59;31.99
55317;BME280;41178;48.956;8.130;2023-07-02T16:18:55;99359.56;;;23.27;32.60
55317;BME280;41178;48.956;8.130;2023-07-02T16:23:57;99312.25;;;23.42;32.39
55317;BME280;41178;48.956;8.130;2023-07-02T16:28:59;99313.44;;;23.75;32.16
55317;BME280;41178;48.956;8.130;2023-07-02T16:34:01;99316.72;;;23.77;32.29
55317;BME280;41178;48.956;8.130;2023-07-02T16:39:03;99321.97;;;23.69;31.48
55317;BME280;41178;48.956;8.130;2023-07-02T16:44:05;99362.91;;;23.08;32.74
55317;BME280;41178;48.956;8.130;2023-07-02T16:49:08;99332.56;;;23.25;32.64
55317;BME280;41178;48.956;8.130;2023-07-02T16:54:12;99312.38;;;24.06;31.91
55317;BME280;41178;48.956;8.130;2023-07-02T16:59:19;99308.34;;;23.08;33.11
55317;BME280;41178;48.956;8.130;2023-07-02T17:04:22;99357.75;;;24.41;32.20
55317;BME280;41178;48.956;8.130;2023-07-02T17:09:33;99313.50;;;23.70;32.90
55317;BME280;41178;48.956;8.130;2023-07-02T17:14:36;99361.84;;;22.89;33.86
55317;BME280;41178;48.956;8.130;2023-07-02T17:19:44;99278.69;;;23.81;33.24
55317;BME280;41178;48.956;8.130;2023-07-02T17:24:48;99338.59;;;23.12;33.75
55317;BME280;41178;48.956;8.130;2023-07-02T17:29:52;99368.56;;;23.28;33.55
55317;BME280;41178;48.956;8.130;2023-07-02T17:34:54;99335.66;;;23.58;33.57
55317;BME280;41178;48.956;8.130;2023-07-02T17:39:57;99382.00;;;21.70;34.62
55317;BME280;41178;48.956;8.130;2023-07-02T17:44:58;99292.47;;;23.16;34.18
55317;BME280;41178;48.956;8.130;2023-07-02T17:50:01;99359.47;;;22.57;34.49
55317;BME280;41178;48.956;8.130;2023-07-02T17:55:05;99295.38;;;23.40;33.86
55317;BME280;41178;48.956;8.130;2023-07-02T18:00:08;99265.66;;;24.02;33.22
55317;BME280;41178;48.956;8.130;2023-07-02T18:05:10;99346.84;;;21.58;34.98
55317;BME280;41178;48.956;8.130;2023-07-02T18:10:12;99280.75;;;21.99;34.83
55317;BME280;41178;48.956;8.130;2023-07-02T18:15:14;99300.88;;;21.87;34.98
55317;BME280;41178;48.956;8.130;2023-07-02T18:20:16;99286.72;;;22.21;34.59
55317;BME280;41178;48.956;8.130;2023-07-02T18:25:17;99285.34;;;22.34;34.53
55317;BME280;41178;48.956;8.130;2023-07-02T18:30:19;99290.56;;;22.20;34.85
55317;BME280;41178;48.956;8.130;2023-07-02T18:35:21;99341.97;;;21.75;34.86
55317;BME280;41178;48.956;8.130;2023-07-02T18:40:23;99349.25;;;20.81;36.12
55317;BME280;41178;48.956;8.130;2023-07-02T18:45:25;99315.88;;;21.85;35.66
55317;BME280;41178;48.956;8.130;2023-07-02T18:50:27;99363.00;;;22.52;34.66
55317;BME280;41178;48.956;8.130;2023-07-02T18:55:29;99320.75;;;21.93;35.10
55317;BME280;41178;48.956;8.130;2023-07-02T19:00:31;99300.59;;;21.58;35.87
55317;BME280;41178;48.956;8.130;2023-07-02T19:05:33;99363.47;;;19.91;37.20
55317;BME280;41178;48.956;8.130;2023-07-02T19:10:34;99340.69;;;20.62;36.81
55317;BME280;41178;48.956;8.130;2023-07-02T19:15:39;99320.75;;;20.89;36.65
55317;BME280;41178;48.956;8.130;2023-07-02T19:20:41;99344.94;;;20.53;36.80
55317;BME280;41178;48.956;8.130;2023-07-02T19:25:44;99324.59;;;19.90;37.97
55317;BME280;41178;48.956;8.130;2023-07-02T19:30:46;99328.31;;;20.44;36.96
55317;BME280;41178;48.956;8.130;2023-07-02T19:35:47;99308.16;;;20.02;37.97
55317;BME280;41178;48.956;8.130;2023-07-02T19:40:54;99324.06;;;20.21;37.43
55317;BME280;41178;48.956;8.130;2023-07-02T19:45:59;99355.66;;;20.27;37.44
55317;BME280;41178;48.956;8.130;2023-07-02T19:51:04;99361.97;;;20.38;37.00
55317;BME280;41178;48.956;8.130;2023-07-02T19:56:07;99293.88;;;21.02;37.09
55317;BME280;41178;48.956;8.130;2023-07-02T20:01:11;99323.59;;;18.98;39.09
55317;BME280;41178;48.956;8.130;2023-07-02T20:06:13;99315.06;;;18.50;39.47
55317;BME280;41178;48.956;8.130;2023-07-02T20:11:15;99353.22;;;18.49;38.99
55317;BME280;41178;48.956;8.130;2023-07-02T20:16:17;99321.94;;;19.41;38.23
55317;BME280;41178;48.956;8.130;2023-07-02T20:21:20;99377.56;;;18.82;38.85
55317;BME280;41178;48.956;8.130;2023-07-02T20:26:22;99368.09;;;18.63;39.06
55317;BME280;41178;48.956;8.130;2023-07-02T20:31:25;99368.44;;;18.89;38.98
55317;BME280;41178;48.956;8.130;2023-07-02T20:36:27;99398.53;;;18.36;39.62
55317;BME280;41178;48.956;8.130;2023-07-02T20:41:29;99365.16;;;18.48;39.84
55317;BME280;41178;48.956;8.130;2023-07-02T20:46:31;99394.09;;;18.30;39.70
55317;BME280;41178;48.956;8.130;2023-07-02T20:51:33;99383.69;;;18.56;39.64
55317;BME280;41178;48.956;8.130;2023-07-02T20:56:38;99361.09;;;18.67;39.50
55317;BME280;41178;48.956;8.130;2023-07-02T21:01:40;99379.47;;;18.65;39.44
55317;BME280;41178;48.956;8.130;2023-07-02T21:06:42;99370.69;;;19.14;38.98
55317;BME280;41178;48.956;8.130;2023-07-02T21:11:43;99376.31;;;19.07;38.89
55317;BME280;41178;48.956;8.130;2023-07-02T21:16:45;99413.41;;;18.84;39.30
55317;BME280;41178;48.956;8.130;2023-07-02T21:21:50;99374.66;;;20.00;38.34
55317;BME280;41178;48.956;8.130;2023-07-02T21:26:53;99467.03;;;19.55;38.30
55317;BME280;41178;48.956;8.130;2023-07-02T21:31:54;99399.38;;;20.63;37.49
55317;BME280;41178;48.956;8.130;2023-07-02T21:36:56;99494.66;;;21.11;36.79
55317;BME280;41178;48.956;8.130;2023-07-02T21:41:58;99509.69;;;20.86;36.88
55317;BME280;41178;48.956;8.130;2023-07-02T21:46:59;99480.41;;;21.99;36.21
55317;BME280;41178;48.956;8.130;2023-07-02T21:52:25;99502.88;;;21.21;36.87
55317;BME280;41178;48.956;8.130;2023-07-02T21:57:29;99536.44;;;20.40;37.84
55317;BME280;41178;48.956;8.130;2023-07-02T22:02:31;99493.94;;;21.78;35.87
55317;BME280;41178;48.956;8.130;2023-07-02T22:07:33;99528.16;;;21.59;36.08
55317;BME280;41178;48.956;8.130;2023-07-02T22:12:35;99528.09;;;21.11;36.84
55317;BME280;41178;48.956;8.130;2023-07-02T22:17:38;99550.88;;;20.73;37.05
55317;BME280;41178;48.956;8.130;2023-07-02T22:22:41;99470.53;;;21.93;35.77
55317;BME280;41178;48.956;8.130;2023-07-02T22:27:44;99501.44;;;21.56;36.59
55317;BME280;41178;48.956;8.130;2023-07-02T22:32:46;99471.19;;;22.21;35.66
55317;BME280;41178;48.956;8.130;2023-07-02T22:37:48;99492.84;;;21.79;36.50
55317;BME280;41178;48.956;8.130;2023-07-02T22:42:50;99497.50;;;21.84;36.48
55317;BME280;41178;48.956;8.130;2023-07-02T22:47:52;99491.31;;;21.03;37.20
55317;BME280;41178;48.956;8.130;2023-07-02T22:52:54;99485.59;;;21.00;37.55
55317;BME280;41178;48.956;8.130;2023-07-02T22:57:56;99540.06;;;20.01;38.39
55317;BME280;41178;48.956;8.130;2023-07-02T23:02:58;99418.34;;;20.90;37.76
55317;BME280;41178;48.956;8.130;2023-07-02T23:07:59;99492.91;;;20.62;37.46
55317;BME280;41178;48.956;8.130;2023-07-02T23:13:01;99422.97;;;20.52;38.38
55317;BME280;41178;48.956;8.130;2023-07-02T23:18:03;99500.28;;;19.68;38.27
55317;BME280;41178;48.956;8.130;2023-07-02T23:23:05;99442.50;;;19.94;38.50
55317;BME280;41178;48.956;8.130;2023-07-02T23:28:07;99446.28;;;19.49;38.79
55317;BME280;41178;48.956;8.130;2023-07-02T23:33:11;99436.78;;;19.69;39.05
55317;BME280;41178;48.956;8.130;2023-07-02T23:38:14;99445.78;;;19.97;38.65
55317;BME280;41178;48.956;8.130;2023-07-02T23:43:15;99409.00;;;21.18;37.35
55317;BME280;41178;48.956;8.130;2023-07-02T23:48:17;99467.66;;;20.99;37.49
55317;BME280;41178;48.956;8.130;2023-07-02T23:53:19;99480.81;;;20.20;38.30
55317;BME280;41178;48.956;8.130;2023-07-02T23:58:21;99415.34;;;20.54;38.45
